createdAt,value
2017-11-03T00:02:51.698Z,67.90
2017-11-03T00:03:54.421Z,66.37
2017-11-03T00:04:57.037Z,66.28
2017-11-03T00:05:59.760Z,67.85
2017-11-03T00:07:02.253Z,64.37
2017-11-03T00:08:05.715Z,60.28
2017-11-03T00:09:08.226Z,66.03
2017-11-03T00:10:11.974Z,66.20
2017-11-03T00:11:15.244Z,65.05
2017-11-03T00:12:17.930Z,65.87
2017-11-03T00:13:20.423Z,61.08
2017-11-03T00:14:23.928Z,63.72
2017-11-03T00:15:26.434Z,67.78
2017-11-03T00:16:29.319Z,68.87
2017-11-03T00:17:32.432Z,68.95
2017-11-03T00:18:37.282Z,58.70
2017-11-03T00:19:39.889Z,60.75
2017-11-03T00:20:42.410Z,60.92
2017-11-03T00:21:44.922Z,60.17
2017-11-03T00:22:48.764Z,58.53
2017-11-03T00:23:52.197Z,63.38
2017-11-03T00:24:54.888Z,61.53
2017-11-03T00:25:58.160Z,59.13
2017-11-03T00:27:02.375Z,59.90
2017-11-03T00:28:04.907Z,56.92
2017-11-03T00:29:07.407Z,58.97
2017-11-03T00:30:09.905Z,60.12
2017-11-03T00:31:12.512Z,58.92
2017-11-03T00:32:15.057Z,60.50
2017-11-03T00:33:17.761Z,55.40
2017-11-03T00:34:20.269Z,53.42
2017-11-03T00:35:22.782Z,59.72
2017-11-03T00:36:25.308Z,58.35
2017-11-03T00:37:27.945Z,57.33
2017-11-03T00:38:31.217Z,55.85
2017-11-03T00:39:33.801Z,55.35
2017-11-03T00:40:37.929Z,57.10
2017-11-03T00:41:40.875Z,54.72
2017-11-03T00:42:44.154Z,57.03
2017-11-03T00:43:47.636Z,60.28
2017-11-03T00:44:51.141Z,59.55
2017-11-03T00:45:54.504Z,55.33
2017-11-03T00:46:57.802Z,59.30
2017-11-03T00:48:00.604Z,59.65
2017-11-03T00:49:03.096Z,61.90
2017-11-03T00:50:05.799Z,59.47
2017-11-03T00:51:08.310Z,63.20
2017-11-03T00:52:11.172Z,59.58
2017-11-03T00:53:14.485Z,58.42
2017-11-03T00:54:17.086Z,55.25
2017-11-03T00:55:19.601Z,59.30
2017-11-03T00:56:22.441Z,58.10
2017-11-03T00:57:25.093Z,64.80
2017-11-03T00:58:28.693Z,59.80
2017-11-03T00:59:32.011Z,64.82
2017-11-03T01:00:34.866Z,64.32
2017-11-03T01:01:38.129Z,65.40
2017-11-03T01:02:40.946Z,61.33
2017-11-03T01:03:43.471Z,59.67
2017-11-03T01:04:46.238Z,62.05
2017-11-03T01:05:48.769Z,64.07
2017-11-03T01:06:51.585Z,63.70
2017-11-03T01:07:54.856Z,58.55
2017-11-03T01:08:58.610Z,61.20
2017-11-03T01:10:01.826Z,58.20
2017-11-03T01:11:04.413Z,60.33
2017-11-03T01:12:06.928Z,60.40
2017-11-03T01:13:11.135Z,57.90
2017-11-03T01:14:14.885Z,55.70
2017-11-03T01:16:47.480Z,55.50
2017-11-03T01:17:50.427Z,56.65
2017-11-03T01:18:53.004Z,62.15
2017-11-03T01:19:55.909Z,56.15
2017-11-03T01:20:59.666Z,57.10
2017-11-03T01:22:02.419Z,56.53
2017-11-03T01:23:05.709Z,54.90
2017-11-03T01:24:09.253Z,56.08
2017-11-03T01:25:11.758Z,55.03
2017-11-03T01:26:15.212Z,54.88
2017-11-03T01:27:17.722Z,54.40
2017-11-03T01:28:20.285Z,52.80
2017-11-03T01:29:23.560Z,52.88
2017-11-03T01:30:27.855Z,51.37
2017-11-03T01:33:04.128Z,49.08
2017-11-03T01:34:07.396Z,51.47
2017-11-03T01:35:10.053Z,51.42
2017-11-03T01:36:12.595Z,51.60
2017-11-03T01:37:15.517Z,44.97
2017-11-03T01:38:20.384Z,48.97
2017-11-03T01:39:24.076Z,45.08
2017-11-03T01:40:27.590Z,44.25
2017-11-03T01:41:31.386Z,43.85
2017-11-03T01:42:34.197Z,46.58
2017-11-03T01:43:37.085Z,42.83
2017-11-03T01:44:41.127Z,41.33
2017-11-03T01:45:44.556Z,41.75
2017-11-03T01:46:47.173Z,41.83
2017-11-03T01:47:49.860Z,41.85
2017-11-03T01:48:52.728Z,44.92
2017-11-03T01:50:00.094Z,45.65
2017-11-03T01:51:02.900Z,42.58
2017-11-03T01:52:06.597Z,45.60
2017-11-03T01:53:10.420Z,46.00
2017-11-03T01:54:13.878Z,42.28
2017-11-03T01:55:18.808Z,45.65
2017-11-03T01:57:51.993Z,42.45
2017-11-03T01:58:56.037Z,42.33
2017-11-03T02:01:26.718Z,40.90
2017-11-03T02:02:29.332Z,40.80
2017-11-03T02:03:32.101Z,42.83
2017-11-03T02:04:35.475Z,43.78
2017-11-03T02:05:38.906Z,42.10
2017-11-03T02:06:41.527Z,41.70
2017-11-03T02:07:44.452Z,43.90
2017-11-03T02:08:47.093Z,41.28
2017-11-03T02:09:50.524Z,40.78
2017-11-03T02:10:54.106Z,40.60
2017-11-03T02:11:56.833Z,42.25
2017-11-03T02:12:59.639Z,44.15
2017-11-03T02:14:02.826Z,44.28
2017-11-03T02:15:05.468Z,45.38
2017-11-03T02:16:09.211Z,43.75
2017-11-03T02:17:12.904Z,45.60
2017-11-03T02:18:18.875Z,48.22
2017-11-03T02:19:21.581Z,47.88
2017-11-03T02:20:25.481Z,50.33
2017-11-03T02:21:29.052Z,52.80
2017-11-03T02:22:33.114Z,50.00
2017-11-03T02:23:36.065Z,49.85
2017-11-03T02:24:40.402Z,47.95
2017-11-03T02:25:43.303Z,51.50
2017-11-03T02:26:48.525Z,50.97
2017-11-03T02:27:51.391Z,50.35
2017-11-03T02:28:55.239Z,47.80
2017-11-03T02:29:58.147Z,49.63
2017-11-03T02:31:01.534Z,48.42
2017-11-03T02:32:05.851Z,50.53
2017-11-03T02:33:08.345Z,50.17
2017-11-03T02:34:10.984Z,51.95
2017-11-03T02:35:13.494Z,53.38
2017-11-03T02:36:18.117Z,52.70
2017-11-03T02:37:21.494Z,50.92
2017-11-03T02:38:26.182Z,53.80
2017-11-03T02:39:30.330Z,50.22
2017-11-03T02:40:33.908Z,52.85
2017-11-03T02:41:37.216Z,53.38
2017-11-03T02:42:40.032Z,50.95
2017-11-03T02:43:44.793Z,52.50
2017-11-03T02:44:48.442Z,53.92
2017-11-03T02:45:51.164Z,57.53
2017-11-03T02:46:53.808Z,54.38
2017-11-03T02:47:57.415Z,53.15
2017-11-03T02:49:00.024Z,53.87
2017-11-03T02:50:02.620Z,54.28
2017-11-03T02:51:05.406Z,58.47
2017-11-03T02:52:07.991Z,55.72
2017-11-03T02:53:10.641Z,58.25
2017-11-03T02:54:13.939Z,56.22
2017-11-03T02:55:16.765Z,55.10
2017-11-03T02:56:19.300Z,55.30
2017-11-03T02:57:21.977Z,57.00
2017-11-03T02:58:25.093Z,55.92
2017-11-03T02:59:27.921Z,56.47
2017-11-03T03:00:31.634Z,54.22
2017-11-03T03:01:34.697Z,56.00
2017-11-03T03:02:37.212Z,56.70
2017-11-03T03:03:40.948Z,60.22
2017-11-03T03:04:43.510Z,55.28
2017-11-03T03:05:46.350Z,58.30
2017-11-03T03:06:49.045Z,60.60
2017-11-03T03:07:51.834Z,55.40
2017-11-03T03:08:54.532Z,53.33
2017-11-03T03:09:57.603Z,59.78
2017-11-03T03:11:01.975Z,58.08
2017-11-03T03:12:05.478Z,56.33
2017-11-03T03:13:08.084Z,55.15
2017-11-03T03:14:10.915Z,59.05
2017-11-03T03:15:14.246Z,58.40
2017-11-03T03:16:17.038Z,55.15
2017-11-03T03:17:20.348Z,54.67
2017-11-03T03:18:23.924Z,59.92
2017-11-03T03:19:28.273Z,63.38
2017-11-03T03:20:31.156Z,62.40
2017-11-03T03:21:33.655Z,63.63
2017-11-03T03:22:36.530Z,69.60
2017-11-03T03:23:39.165Z,82.93
2017-11-03T03:24:42.850Z,60.28
2017-11-03T03:25:45.354Z,59.67
2017-11-03T03:26:47.950Z,64.25
2017-11-03T03:27:50.488Z,72.15
2017-11-03T03:28:58.115Z,71.68
2017-11-03T03:30:00.602Z,70.95
2017-11-03T03:31:03.401Z,68.20
2017-11-03T03:32:05.939Z,67.32
2017-11-03T03:33:09.114Z,73.45
2017-11-03T03:34:11.785Z,73.78
2017-11-03T03:35:14.562Z,67.10
2017-11-03T03:36:17.063Z,76.25
2017-11-03T03:37:20.530Z,77.57
2017-11-03T03:38:23.054Z,67.00
2017-11-03T03:39:25.604Z,81.12
2017-11-03T03:40:28.972Z,76.12
2017-11-03T03:41:31.533Z,74.15
2017-11-03T03:42:34.064Z,72.43
2017-11-03T03:43:36.887Z,87.30
2017-11-03T03:44:39.400Z,82.80
2017-11-03T03:45:42.394Z,82.75
2017-11-03T03:46:44.970Z,80.60
2017-11-03T03:47:47.567Z,76.25
2017-11-03T03:48:51.456Z,80.55
2017-11-03T03:49:54.995Z,80.22
2017-11-03T03:50:57.517Z,74.68
2017-11-03T03:52:01.125Z,94.85
2017-11-03T03:53:04.600Z,80.28
2017-11-03T03:54:07.914Z,82.15
2017-11-03T03:55:10.423Z,85.55
2017-11-03T03:56:13.221Z,83.40
2017-11-03T03:57:16.493Z,84.85
2017-11-03T03:58:19.244Z,83.12
2017-11-03T03:59:21.984Z,71.87
2017-11-03T04:00:24.821Z,76.32
2017-11-03T04:01:28.113Z,76.10
2017-11-03T04:02:31.652Z,77.60
2017-11-03T04:03:34.144Z,73.60
2017-11-03T04:04:37.683Z,76.70
2017-11-03T04:05:40.248Z,70.72
2017-11-03T04:06:42.962Z,74.85
2017-11-03T04:07:45.474Z,74.22
2017-11-03T04:08:50.194Z,71.03
2017-11-03T04:09:53.542Z,80.05
2017-11-03T04:10:57.036Z,70.50
2017-11-03T04:12:00.319Z,79.12
2017-11-03T04:13:03.630Z,72.35
2017-11-03T04:14:06.884Z,69.72
2017-11-03T04:15:09.541Z,72.22
2017-11-03T04:16:12.023Z,61.78
2017-11-03T04:17:15.560Z,65.43
2017-11-03T04:18:18.127Z,63.05
2017-11-03T04:19:21.593Z,67.53
2017-11-03T04:20:25.724Z,66.95
2017-11-03T04:21:28.778Z,61.20
2017-11-03T04:22:31.763Z,62.92
2017-11-03T04:23:34.598Z,64.65
2017-11-03T04:24:37.097Z,64.07
2017-11-03T04:25:39.610Z,60.15
2017-11-03T04:26:42.139Z,58.55
2017-11-03T04:27:44.694Z,61.65
2017-11-03T04:28:47.188Z,64.40
2017-11-03T04:29:49.727Z,62.85
2017-11-03T04:30:52.213Z,60.55
2017-11-03T04:31:55.358Z,65.57
2017-11-03T04:32:58.653Z,64.93
2017-11-03T04:34:01.352Z,71.90
2017-11-03T04:35:03.865Z,68.22
2017-11-03T04:36:07.219Z,70.22
2017-11-03T04:37:09.724Z,64.95
2017-11-03T04:38:13.180Z,66.85
2017-11-03T04:39:15.710Z,65.45
2017-11-03T04:40:19.443Z,63.95
2017-11-03T04:41:21.948Z,70.10
2017-11-03T04:42:24.510Z,74.50
2017-11-03T04:43:27.768Z,66.37
2017-11-03T04:44:31.053Z,73.75
2017-11-03T04:45:34.339Z,63.45
2017-11-03T04:46:37.039Z,67.22
2017-11-03T04:47:39.659Z,71.30
2017-11-03T04:48:43.869Z,63.33
2017-11-03T04:49:46.362Z,64.22
2017-11-03T04:50:49.832Z,65.80
2017-11-03T04:51:52.344Z,63.35
2017-11-03T04:52:55.216Z,67.40
2017-11-03T04:53:57.906Z,64.53
2017-11-03T04:55:00.601Z,63.80
2017-11-03T04:56:03.224Z,64.35
2017-11-03T04:57:05.868Z,60.03
2017-11-03T04:58:09.138Z,60.05
2017-11-03T04:59:14.228Z,64.60
2017-11-03T05:00:16.726Z,61.17
2017-11-03T05:01:19.347Z,60.63
2017-11-03T05:02:22.808Z,57.53
2017-11-03T05:03:25.566Z,58.00
2017-11-03T05:04:28.331Z,53.45
2017-11-03T05:05:32.443Z,56.50
2017-11-03T05:06:34.941Z,54.35
2017-11-03T05:07:39.358Z,56.75
2017-11-03T05:08:42.645Z,52.55
2017-11-03T05:09:47.427Z,59.00
2017-11-03T05:10:49.949Z,58.50
2017-11-03T05:11:52.816Z,54.78
2017-11-03T05:12:56.096Z,54.28
2017-11-03T05:14:00.543Z,53.15
2017-11-03T05:15:03.100Z,55.20
2017-11-03T05:16:05.902Z,52.20
2017-11-03T05:17:08.395Z,56.08
2017-11-03T05:18:11.037Z,64.78
2017-11-03T05:19:13.657Z,56.92
2017-11-03T05:20:16.387Z,53.90
2017-11-03T05:21:20.377Z,57.13
2017-11-03T05:22:23.144Z,57.80
2017-11-03T05:23:25.678Z,57.22
2017-11-03T05:24:29.434Z,61.25
2017-11-03T05:25:31.933Z,67.53
2017-11-03T05:26:34.775Z,60.95
2017-11-03T05:27:38.156Z,59.40
2017-11-03T05:28:42.112Z,61.60
2017-11-03T05:29:44.927Z,61.75
2017-11-03T05:30:48.216Z,63.25
2017-11-03T05:31:51.784Z,61.00
2017-11-03T05:32:55.132Z,60.53
2017-11-03T05:33:57.942Z,60.58
2017-11-03T05:35:02.176Z,61.37
2017-11-03T05:36:05.531Z,53.58
2017-11-03T05:37:08.074Z,54.30
2017-11-03T05:38:10.952Z,54.88
2017-11-03T05:39:13.451Z,58.17
2017-11-03T05:40:16.909Z,55.35
2017-11-03T05:41:20.176Z,51.42
2017-11-03T05:42:22.765Z,57.47
2017-11-03T05:43:44.669Z,55.95
2017-11-03T05:44:47.597Z,51.40
2017-11-03T05:45:50.994Z,61.47
2017-11-03T05:46:54.335Z,52.22
2017-11-03T05:47:57.045Z,58.83
2017-11-03T05:49:01.540Z,57.28
2017-11-03T05:50:04.823Z,56.25
2017-11-03T05:51:07.614Z,64.87
2017-11-03T05:52:10.887Z,66.40
2017-11-03T05:53:13.422Z,58.42
2017-11-03T05:54:15.925Z,62.95
2017-11-03T05:55:19.375Z,69.07
2017-11-03T05:56:21.923Z,59.45
2017-11-03T05:57:24.723Z,59.53
2017-11-03T05:58:27.217Z,66.00
2017-11-03T05:59:30.693Z,59.60
2017-11-03T06:00:33.178Z,64.22
2017-11-03T06:01:36.643Z,61.85
2017-11-03T06:02:39.134Z,61.92
2017-11-03T06:03:42.610Z,77.10
2017-11-03T06:04:45.956Z,68.57
2017-11-03T06:05:48.547Z,58.40
2017-11-03T06:06:51.045Z,59.22
2017-11-03T06:07:53.899Z,59.67
2017-11-03T06:08:57.244Z,59.47
2017-11-03T06:10:00.756Z,59.10
2017-11-03T06:11:03.323Z,65.50
2017-11-03T06:12:07.991Z,61.08
2017-11-03T06:13:11.329Z,55.92
2017-11-03T06:14:13.831Z,59.70
2017-11-03T06:15:17.107Z,60.12
2017-11-03T06:16:22.719Z,54.60
2017-11-03T06:17:25.227Z,56.90
2017-11-03T06:18:27.911Z,59.58
2017-11-03T06:19:30.434Z,58.17
2017-11-03T06:20:32.980Z,57.95
2017-11-03T06:21:35.467Z,57.20
2017-11-03T06:22:38.052Z,52.47
2017-11-03T06:23:40.574Z,56.90
2017-11-03T06:24:43.399Z,55.67
2017-11-03T06:25:48.560Z,52.10
2017-11-03T06:26:52.093Z,55.10
2017-11-03T06:27:54.683Z,55.15
2017-11-03T06:28:57.351Z,52.53
2017-11-03T06:30:01.014Z,54.67
2017-11-03T06:31:03.601Z,53.05
2017-11-03T06:32:06.104Z,58.30
2017-11-03T06:33:09.739Z,62.47
2017-11-03T06:34:12.251Z,58.28
2017-11-03T06:35:14.898Z,55.70
2017-11-03T06:36:18.015Z,55.95
2017-11-03T06:37:21.489Z,57.92
2017-11-03T06:38:23.992Z,56.72
2017-11-03T06:39:26.510Z,59.42
2017-11-03T06:40:29.623Z,56.85
2017-11-03T06:41:32.131Z,53.50
2017-11-03T06:42:34.636Z,56.45
2017-11-03T06:43:37.166Z,52.13
2017-11-03T06:44:39.732Z,52.28
2017-11-03T06:45:43.027Z,51.05
2017-11-03T06:46:45.591Z,55.33
2017-11-03T06:47:48.150Z,57.60
2017-11-03T06:48:50.643Z,56.20
2017-11-03T06:49:53.211Z,57.10
2017-11-03T06:50:55.721Z,53.28
2017-11-03T06:51:58.251Z,54.45
2017-11-03T06:53:00.751Z,60.33
2017-11-03T06:54:03.773Z,59.65
2017-11-03T06:55:06.707Z,55.90
2017-11-03T06:56:09.222Z,55.12
2017-11-03T06:57:11.734Z,56.60
2017-11-03T06:58:14.252Z,55.88
2017-11-03T06:59:16.771Z,59.75
2017-11-03T07:00:19.278Z,58.78
2017-11-03T07:01:21.791Z,57.88
2017-11-03T07:02:24.467Z,63.50
2017-11-03T07:03:26.964Z,52.83
2017-11-03T07:04:30.554Z,59.63
2017-11-03T07:05:33.051Z,58.60
2017-11-03T07:06:35.618Z,52.55
2017-11-03T07:07:38.123Z,51.92
2017-11-03T07:08:40.655Z,54.75
2017-11-03T07:09:43.921Z,57.80
2017-11-03T07:10:47.689Z,51.80
2017-11-03T07:11:50.203Z,55.38
2017-11-03T07:12:53.505Z,50.85
2017-11-03T07:13:56.103Z,51.92
2017-11-03T07:14:58.805Z,51.13
2017-11-03T07:16:02.552Z,52.92
2017-11-03T07:17:07.251Z,51.35
2017-11-03T07:18:09.786Z,50.17
2017-11-03T07:19:12.532Z,48.83
2017-11-03T07:20:15.022Z,52.47
2017-11-03T07:21:18.528Z,47.13
2017-11-03T07:22:21.775Z,50.58
2017-11-03T07:23:24.519Z,49.65
2017-11-03T07:24:27.048Z,49.97
2017-11-03T07:25:30.394Z,52.88
2017-11-03T07:26:32.904Z,54.22
2017-11-03T07:27:36.633Z,53.15
2017-11-03T07:28:39.180Z,51.78
2017-11-03T07:29:41.689Z,58.83
2017-11-03T07:30:44.680Z,51.35
2017-11-03T07:31:47.532Z,51.22
2017-11-03T07:32:50.029Z,50.05
2017-11-03T07:33:52.731Z,50.33
2017-11-03T07:34:55.228Z,46.03
2017-11-03T07:35:59.040Z,46.83
2017-11-03T07:37:01.531Z,48.92
2017-11-03T07:38:04.343Z,50.35
2017-11-03T07:39:06.836Z,52.38
2017-11-03T07:40:09.344Z,50.05
2017-11-03T07:41:13.308Z,48.25
2017-11-03T07:42:16.523Z,49.30
2017-11-03T07:43:19.877Z,49.97
2017-11-03T07:44:22.447Z,47.03
2017-11-03T07:45:25.071Z,51.35
2017-11-03T07:46:28.622Z,51.92
2017-11-03T07:47:31.132Z,53.17
2017-11-03T07:48:33.758Z,52.97
2017-11-03T07:49:36.294Z,47.90
2017-11-03T07:50:38.849Z,49.53
2017-11-03T07:51:41.389Z,45.00
2017-11-03T07:52:44.190Z,47.45
2017-11-03T07:53:46.883Z,47.40
2017-11-03T07:54:49.544Z,47.17
2017-11-03T07:55:52.734Z,49.42
2017-11-03T07:56:56.271Z,86.22
2017-11-03T07:57:58.761Z,56.75
2017-11-03T07:59:01.374Z,58.83
2017-11-03T08:00:04.005Z,47.80
2017-11-03T08:01:06.857Z,46.28
2017-11-03T08:02:09.427Z,45.45
2017-11-03T08:03:12.063Z,45.97
2017-11-03T08:04:24.105Z,47.65
2017-11-03T08:05:28.861Z,47.15
2017-11-03T08:06:32.332Z,47.17
2017-11-03T08:07:34.851Z,51.40
2017-11-03T08:08:37.375Z,48.30
2017-11-03T08:09:39.862Z,48.95
2017-11-03T08:10:42.603Z,47.55
2017-11-03T08:11:45.120Z,46.53
2017-11-03T08:12:47.794Z,50.12
2017-11-03T08:13:50.283Z,48.55
2017-11-03T08:14:52.794Z,49.83
2017-11-03T08:15:56.184Z,48.40
2017-11-03T08:16:59.183Z,51.17
2017-11-03T08:18:01.706Z,49.17
2017-11-03T08:19:04.378Z,47.20
2017-11-03T08:20:06.932Z,51.30
2017-11-03T08:21:10.342Z,48.83
2017-11-03T08:22:13.633Z,49.53
2017-11-03T08:23:16.911Z,47.62
2017-11-03T08:24:20.165Z,46.53
2017-11-03T08:25:22.924Z,45.97
2017-11-03T08:26:25.529Z,51.15
2017-11-03T08:27:28.789Z,49.45
2017-11-03T08:28:31.328Z,48.85
2017-11-03T08:29:34.208Z,48.90
2017-11-03T08:30:36.725Z,48.30
2017-11-03T08:31:40.078Z,50.38
2017-11-03T08:32:42.571Z,51.28
2017-11-03T08:33:46.092Z,52.45
2017-11-03T08:34:48.636Z,48.40
2017-11-03T08:35:51.374Z,50.20
2017-11-03T08:36:54.125Z,50.25
2017-11-03T08:37:56.708Z,50.45
2017-11-03T08:39:00.145Z,52.60
2017-11-03T08:40:02.780Z,48.33
2017-11-03T08:41:05.287Z,48.65
2017-11-03T08:42:08.023Z,50.22
2017-11-03T08:43:11.290Z,46.40
2017-11-03T08:44:14.100Z,50.80
2017-11-03T08:45:16.621Z,49.97
2017-11-03T08:46:19.150Z,49.63
2017-11-03T08:47:21.826Z,51.95
2017-11-03T08:48:24.326Z,51.00
2017-11-03T08:49:27.027Z,49.35
2017-11-03T08:50:31.232Z,51.22
2017-11-03T08:51:34.008Z,50.90
2017-11-03T08:52:37.259Z,52.05
2017-11-03T08:53:41.364Z,49.63
2017-11-03T08:54:43.912Z,49.22
2017-11-03T08:55:46.432Z,48.75
2017-11-03T08:56:49.109Z,49.35
2017-11-03T08:57:51.722Z,49.03
2017-11-03T08:58:54.364Z,49.50
2017-11-03T08:59:57.079Z,50.90
2017-11-03T09:00:59.617Z,50.30
2017-11-03T09:02:02.143Z,48.72
2017-11-03T09:03:04.664Z,50.50
2017-11-03T09:04:07.213Z,49.70
2017-11-03T09:05:09.731Z,52.08
2017-11-03T09:06:13.101Z,53.50
2017-11-03T09:07:16.488Z,54.45
2017-11-03T09:08:19.045Z,57.90
2017-11-03T09:09:21.540Z,58.47
2017-11-03T09:10:24.163Z,59.58
2017-11-03T09:11:26.892Z,61.78
2017-11-03T09:12:30.664Z,64.30
2017-11-03T09:13:33.988Z,66.97
2017-11-03T09:14:36.563Z,67.43
2017-11-03T09:15:39.493Z,62.88
2017-11-03T09:16:43.123Z,62.17
2017-11-03T09:17:45.638Z,59.67
2017-11-03T09:18:49.336Z,65.72
2017-11-03T09:19:54.305Z,60.08
2017-11-03T09:20:57.060Z,65.68
2017-11-03T09:22:00.069Z,59.72
2017-11-03T09:23:02.705Z,63.08
2017-11-03T09:24:05.717Z,60.38
2017-11-03T09:25:08.282Z,55.63
2017-11-03T09:26:10.832Z,56.88
2017-11-03T09:27:13.686Z,56.50
2017-11-03T09:28:16.197Z,55.12
2017-11-03T09:29:18.955Z,54.95
2017-11-03T09:30:21.457Z,53.08
2017-11-03T09:31:24.722Z,54.30
2017-11-03T09:32:27.203Z,55.42
2017-11-03T09:33:30.645Z,52.40
2017-11-03T09:34:33.281Z,51.70
2017-11-03T09:35:36.990Z,47.03
2017-11-03T09:36:39.523Z,48.90
2017-11-03T09:37:43.152Z,51.50
2017-11-03T09:38:45.684Z,49.92
2017-11-03T09:39:49.133Z,50.25
2017-11-03T09:40:51.632Z,50.08
2017-11-03T09:41:55.205Z,49.97
2017-11-03T09:42:57.696Z,46.80
2017-11-03T09:44:01.436Z,48.53
2017-11-03T09:45:04.099Z,51.08
2017-11-03T09:46:07.004Z,50.17
2017-11-03T09:47:09.543Z,51.00
2017-11-03T09:48:12.235Z,46.63
2017-11-03T09:49:14.759Z,46.03
2017-11-03T09:50:17.907Z,48.40
2017-11-03T09:51:20.409Z,45.80
2017-11-03T09:52:23.256Z,43.80
2017-11-03T09:53:26.512Z,47.25
2017-11-03T09:54:29.260Z,45.12
2017-11-03T09:55:31.758Z,46.88
2017-11-03T09:56:34.594Z,46.83
2017-11-03T09:57:37.349Z,43.75
2017-11-03T09:58:40.162Z,43.47
2017-11-03T09:59:42.750Z,43.13
2017-11-03T10:00:45.510Z,43.95
2017-11-03T10:01:48.023Z,44.92
2017-11-03T10:02:50.847Z,43.95
2017-11-03T10:03:53.364Z,45.22
2017-11-03T10:04:56.284Z,45.35
2017-11-03T10:05:59.548Z,42.75
2017-11-03T10:07:02.146Z,45.53
2017-11-03T10:08:04.956Z,43.40
2017-11-03T10:09:07.812Z,44.30
2017-11-03T10:10:11.220Z,43.65
2017-11-03T10:11:14.715Z,46.65
2017-11-03T10:12:17.241Z,43.17
2017-11-03T10:13:19.966Z,46.53
2017-11-03T10:14:22.462Z,45.00
2017-11-03T10:15:25.037Z,44.60
2017-11-03T10:16:27.563Z,46.03
2017-11-03T10:17:30.413Z,42.05
2017-11-03T10:18:33.568Z,42.38
2017-11-03T10:19:41.541Z,41.97
2017-11-03T10:20:44.023Z,45.45
2017-11-03T10:21:46.684Z,43.45
2017-11-03T10:22:49.227Z,43.30
2017-11-03T10:23:52.023Z,44.38
2017-11-03T10:24:54.685Z,44.17
2017-11-03T10:25:58.488Z,45.20
2017-11-03T10:27:00.996Z,43.17
2017-11-03T10:28:03.835Z,44.25
2017-11-03T10:29:07.142Z,43.87
2017-11-03T10:30:09.785Z,47.97
2017-11-03T10:31:12.383Z,44.72
2017-11-03T10:32:15.107Z,43.30
2017-11-03T10:33:18.088Z,42.65
2017-11-03T10:34:20.760Z,42.92
2017-11-03T10:35:24.027Z,42.17
2017-11-03T10:36:26.726Z,47.33
2017-11-03T10:37:30.076Z,42.85
2017-11-03T10:38:32.788Z,44.20
2017-11-03T10:39:36.052Z,43.95
2017-11-03T10:40:38.626Z,45.67
2017-11-03T10:41:41.112Z,43.92
2017-11-03T10:42:44.568Z,45.40
2017-11-03T10:43:47.275Z,41.55
2017-11-03T10:44:49.918Z,42.90
2017-11-03T10:45:52.435Z,42.55
2017-11-03T10:46:55.304Z,44.60
2017-11-03T10:47:57.861Z,43.53
2017-11-03T10:49:00.635Z,43.90
2017-11-03T10:50:03.144Z,44.60
2017-11-03T10:51:06.022Z,43.15
2017-11-03T10:52:08.541Z,45.15
2017-11-03T10:53:11.456Z,41.00
2017-11-03T10:54:13.963Z,42.13
2017-11-03T10:55:16.578Z,42.22
2017-11-03T10:56:19.195Z,43.87
2017-11-03T10:57:21.926Z,43.95
2017-11-03T10:58:24.470Z,41.53
2017-11-03T10:59:27.319Z,41.78
2017-11-03T11:00:29.935Z,44.38
2017-11-03T11:01:32.598Z,43.08
2017-11-03T11:02:35.097Z,42.42
2017-11-03T11:03:40.106Z,40.38
2017-11-03T11:04:42.623Z,46.10
2017-11-03T11:05:45.453Z,41.17
2017-11-03T11:06:47.981Z,44.13
2017-11-03T11:07:50.759Z,44.15
2017-11-03T11:08:53.411Z,42.95
2017-11-03T11:09:56.236Z,44.63
2017-11-03T11:10:58.748Z,44.30
2017-11-03T11:12:01.558Z,43.42
2017-11-03T11:13:04.996Z,41.28
2017-11-03T11:14:07.794Z,41.33
2017-11-03T11:15:10.324Z,43.30
2017-11-03T11:16:13.056Z,40.78
2017-11-03T11:17:16.155Z,42.38
2017-11-03T11:18:19.616Z,44.67
2017-11-03T11:19:22.131Z,43.22
2017-11-03T11:20:24.975Z,43.63
2017-11-03T11:21:27.485Z,41.20
2017-11-03T11:22:30.300Z,39.30
2017-11-03T11:23:32.838Z,41.03
2017-11-03T11:24:35.654Z,42.17
2017-11-03T11:25:38.941Z,46.05
2017-11-03T11:26:43.264Z,39.83
2017-11-03T11:27:46.525Z,40.72
2017-11-03T11:28:50.237Z,41.13
2017-11-03T11:29:52.744Z,40.22
2017-11-03T11:30:55.354Z,40.78
2017-11-03T11:31:57.969Z,37.28
2017-11-03T11:33:00.674Z,38.00
2017-11-03T11:34:03.187Z,39.67
2017-11-03T11:35:06.032Z,41.40
2017-11-03T11:36:08.568Z,42.53
2017-11-03T11:37:11.351Z,42.22
2017-11-03T11:38:13.961Z,39.70
2017-11-03T11:39:16.736Z,42.30
2017-11-03T11:40:19.408Z,43.05
2017-11-03T11:41:22.138Z,40.58
2017-11-03T11:42:24.630Z,40.97
2017-11-03T11:43:27.498Z,40.88
2017-11-03T11:44:30.889Z,40.55
2017-11-03T11:45:34.271Z,42.72
2017-11-03T11:46:37.528Z,40.12
2017-11-03T11:47:40.203Z,42.08
2017-11-03T11:48:42.726Z,41.53
2017-11-03T11:49:45.560Z,42.22
2017-11-03T11:50:48.800Z,38.28
2017-11-03T11:51:51.512Z,41.47
2017-11-03T11:52:54.782Z,42.80
2017-11-03T11:53:57.505Z,42.53
2017-11-03T11:55:00.119Z,38.55
2017-11-03T11:56:02.782Z,39.95
2017-11-03T11:57:05.315Z,38.55
2017-11-03T11:58:08.544Z,41.40
2017-11-03T11:59:11.798Z,41.42
2017-11-03T12:00:14.383Z,41.47
2017-11-03T12:01:16.919Z,41.00
2017-11-03T12:02:19.738Z,39.63
2017-11-03T12:03:23.134Z,42.78
2017-11-03T12:04:26.609Z,41.22
2017-11-03T12:05:29.885Z,41.85
2017-11-03T12:06:32.558Z,42.85
2017-11-03T12:07:35.846Z,41.65
2017-11-03T12:08:39.423Z,44.95
2017-11-03T12:09:42.060Z,42.30
2017-11-03T12:10:45.680Z,42.85
2017-11-03T12:11:49.691Z,41.15
2017-11-03T12:12:53.289Z,43.63
2017-11-03T12:13:56.540Z,44.35
2017-11-03T12:14:59.294Z,41.30
2017-11-03T12:16:01.799Z,42.10
2017-11-03T12:17:04.459Z,40.92
2017-11-03T12:18:07.004Z,40.60
2017-11-03T12:19:09.811Z,41.05
2017-11-03T12:20:12.353Z,39.83
2017-11-03T12:21:15.154Z,39.25
2017-11-03T12:22:18.464Z,38.53
2017-11-03T12:23:21.119Z,39.67
2017-11-03T12:24:24.378Z,40.63
2017-11-03T12:25:27.187Z,39.10
2017-11-03T12:26:30.504Z,41.20
2017-11-03T12:27:33.287Z,40.30
2017-11-03T12:28:35.815Z,39.47
2017-11-03T12:29:38.339Z,39.25
2017-11-03T12:30:40.871Z,41.83
2017-11-03T12:31:44.620Z,41.20
2017-11-03T12:32:47.926Z,39.78
2017-11-03T12:33:50.740Z,39.53
2017-11-03T12:34:53.278Z,41.05
2017-11-03T12:35:56.115Z,41.58
2017-11-03T12:36:59.571Z,39.33
2017-11-03T12:38:02.211Z,42.13
2017-11-03T12:39:04.807Z,39.78
2017-11-03T12:40:07.489Z,39.60
2017-11-03T12:41:10.045Z,42.83
2017-11-03T12:42:12.982Z,42.58
2017-11-03T12:43:15.622Z,40.38
2017-11-03T12:44:19.562Z,41.95
2017-11-03T12:45:22.123Z,41.60
2017-11-03T12:46:24.766Z,41.53
2017-11-03T12:47:27.356Z,40.00
2017-11-03T12:48:30.092Z,40.90
2017-11-03T12:49:33.371Z,37.03
2017-11-03T12:50:36.952Z,38.83
2017-11-03T12:51:39.525Z,38.78
2017-11-03T12:52:44.498Z,41.20
2017-11-03T12:53:47.086Z,39.33
2017-11-03T12:54:50.506Z,38.28
2017-11-03T12:55:53.792Z,39.72
2017-11-03T12:56:58.208Z,38.08
2017-11-03T12:58:02.433Z,40.28
2017-11-03T12:59:05.143Z,39.70
2017-11-03T13:00:07.710Z,40.75
2017-11-03T13:01:10.963Z,37.20
2017-11-03T13:02:13.527Z,40.60
2017-11-03T13:03:16.055Z,41.13
2017-11-03T13:04:28.008Z,40.05
2017-11-03T13:05:31.835Z,38.30
2017-11-03T13:06:34.771Z,39.28
2017-11-03T13:07:39.925Z,41.33
2017-11-03T13:08:44.974Z,40.55
2017-11-03T13:09:48.199Z,40.35
2017-11-03T13:10:51.571Z,38.35
2017-11-03T13:11:55.388Z,39.25
2017-11-03T13:12:59.767Z,37.20
2017-11-03T13:14:04.142Z,39.35
2017-11-03T13:15:07.986Z,40.25
2017-11-03T13:16:12.426Z,39.58
2017-11-03T13:17:16.125Z,38.20
2017-11-03T13:18:18.647Z,40.38
2017-11-03T13:19:25.280Z,39.55
2017-11-03T13:20:28.953Z,39.83
2017-11-03T13:21:32.644Z,41.08
2017-11-03T13:22:35.993Z,38.85
2017-11-03T13:23:39.318Z,41.10
2017-11-03T13:24:42.686Z,38.60
2017-11-03T13:25:46.842Z,38.80
2017-11-03T13:26:51.167Z,40.95
2017-11-03T13:27:54.558Z,38.75
2017-11-03T13:28:59.079Z,40.17
2017-11-03T13:30:02.182Z,38.53
2017-11-03T13:31:05.942Z,40.50
2017-11-03T13:32:11.281Z,38.83
2017-11-03T13:33:13.828Z,39.85
2017-11-03T13:34:17.839Z,42.33
2017-11-03T13:35:20.368Z,37.63
2017-11-03T13:36:23.054Z,40.08
2017-11-03T13:37:26.614Z,39.20
2017-11-03T13:38:30.418Z,39.55
2017-11-03T13:39:33.054Z,39.60
2017-11-03T13:40:35.951Z,40.08